Time;durP1;ratioP1;P1;durP2;ratioP2;P2;SDS_P1;SDS_P2;PMS_P1;PMS_P2;Temp;Humidity;BMP_temperature;BMP_pressure;BME280_temperature;BME280_humidity;BME280_pressure;Samples;Min_cycle;Max_cycle;Signal;HPM_P1;HPM_P2
2023/06/25 00:00:45;;;;;;;9.05;3.50;;;18.90;1.00;;;;;;4933772;29;20837;-75
2023/06/25 00:03:12;;;;;;;8.30;3.60;;;18.90;1.00;;;;;;4946286;29;20923;-75
2023/06/25 00:05:37;;;;;;;8.30;3.30;;;18.90;1.00;;;;;;4950474;29;20422;-75
2023/06/25 00:08:03;;;;;;;9.10;3.47;;;18.90;1.00;;;;;;4948452;28;20414;-74
2023/06/25 00:10:28;;;;;;;9.30;3.50;;;18.90;1.00;;;;;;4935974;28;20441;-75
2023/06/25 00:12:54;;;;;;;9.10;3.27;;;18.90;1.00;;;;;;4950601;28;20921;-77
2023/06/25 00:15:20;;;;;;;9.47;3.60;;;18.90;1.00;;;;;;4950241;28;20496;-76
2023/06/25 00:17:47;;;;;;;9.17;3.77;;;18.80;99.90;;;;;;4948195;28;20496;-77
2023/06/25 00:20:15;;;;;;;9.07;3.63;;;18.80;99.90;;;;;;4950087;29;20412;-77
2023/06/25 00:22:41;;;;;;;8.98;3.72;;;18.90;99.90;;;;;;4949020;28;20413;-77
2023/06/25 00:25:07;;;;;;;10.07;3.70;;;19.00;99.90;;;;;;4949005;28;20485;-77
2023/06/25 00:27:32;;;;;;;11.15;3.72;;;19.00;99.90;;;;;;4946080;28;20414;-76
2023/06/25 00:30:00;;;;;;;9.23;3.77;;;18.90;99.90;;;;;;4949066;28;20420;-77
2023/06/25 00:32:26;;;;;;;9.15;3.78;;;18.70;1.00;;;;;;4947893;28;20421;-77
2023/06/25 00:34:57;;;;;;;10.27;3.67;;;18.50;1.00;;;;;;4948263;28;20458;-77
2023/06/25 00:37:23;;;;;;;8.32;3.47;;;18.30;27.70;;;;;;4950722;28;20461;-76
2023/06/25 00:39:49;;;;;;;8.90;3.58;;;18.20;99.90;;;;;;4949042;29;20457;-77
2023/06/25 00:42:16;;;;;;;8.55;3.78;;;18.20;99.90;;;;;;4949809;29;20432;-76
2023/06/25 00:44:42;;;;;;;9.52;3.70;;;18.10;99.90;;;;;;4948691;28;20420;-77
2023/06/25 00:47:12;;;;;;;10.32;3.80;;;18.00;99.90;;;;;;4944703;29;20840;-77
2023/06/25 00:49:42;;;;;;;9.63;4.30;;;18.00;1.00;;;;;;4942003;28;20504;-77
2023/06/25 00:52:09;;;;;;;10.50;4.40;;;18.00;1.00;;;;;;4947594;29;20416;-77
2023/06/25 00:54:37;;;;;;;9.13;4.18;;;18.00;1.00;;;;;;4950792;29;20425;-79
2023/06/25 00:57:05;;;;;;;8.57;3.63;;;18.00;1.00;;;;;;4950376;29;20406;-77
2023/06/25 00:59:31;;;;;;;10.52;4.60;;;18.00;1.00;;;;;;4950146;29;20441;-77
2023/06/25 01:02:17;;;;;;;9.30;4.53;;;18.00;1.00;;;;;;4950205;29;20398;-77
2023/06/25 01:04:50;;;;;;;11.52;4.30;;;18.00;99.90;;;;;;4949684;28;20421;-77
2023/06/25 01:07:18;;;;;;;10.70;4.47;;;18.00;99.90;;;;;;4950077;29;20467;-77
2023/06/25 01:09:48;;;;;;;11.02;4.90;;;18.00;99.90;;;;;;4947668;28;20471;-77
2023/06/25 01:12:14;;;;;;;11.45;4.82;;;18.00;99.90;;;;;;4949494;28;20505;-77
2023/06/25 01:14:40;;;;;;;10.65;4.72;;;18.10;99.90;;;;;;4949099;29;20877;-77
2023/06/25 01:17:08;;;;;;;10.45;4.50;;;18.20;26.80;;;;;;4940165;28;20435;-77
2023/06/25 01:19:35;;;;;;;12.73;4.28;;;18.20;8.60;;;;;;4947359;28;20417;-77
2023/06/25 01:22:03;;;;;;;12.60;5.00;;;18.00;99.90;;;;;;4949815;28;20464;-77
2023/06/25 01:24:29;;;;;;;10.73;4.95;;;17.90;99.90;;;;;;4948845;28;20542;-77
2023/06/25 01:26:59;;;;;;;10.00;4.30;;;17.90;99.90;;;;;;4948275;29;20434;-77
2023/06/25 01:29:25;;;;;;;10.77;4.63;;;18.00;99.90;;;;;;4954613;28;20406;-77
2023/06/25 01:31:53;;;;;;;13.20;5.20;;;18.10;99.90;;;;;;4963916;28;20462;-77
2023/06/25 01:34:21;;;;;;;10.60;4.50;;;18.00;99.90;;;;;;4960896;28;20889;-77
2023/06/25 01:36:49;;;;;;;10.10;3.90;;;17.80;1.00;;;;;;4947663;28;20405;-77
2023/06/25 01:39:16;;;;;;;12.43;4.43;;;17.70;1.00;;;;;;4948431;29;20418;-77
2023/06/25 01:41:45;;;;;;;10.27;4.85;;;17.60;1.00;;;;;;4951501;28;20486;-77
2023/06/25 01:44:14;;;;;;;8.68;4.32;;;17.50;4.60;;;;;;4950678;28;20416;-78
2023/06/25 01:46:39;;;;;;;11.05;4.50;;;17.40;99.90;;;;;;4972717;28;20444;-77
2023/06/25 01:49:05;;;;;;;10.67;4.50;;;17.40;99.90;;;;;;4960205;28;20557;-78
2023/06/25 01:51:31;;;;;;;11.20;4.60;;;17.40;99.90;;;;;;4960399;28;20412;-77
2023/06/25 01:54:00;;;;;;;11.27;4.80;;;17.50;75.80;;;;;;4971159;28;20404;-78
2023/06/25 01:56:25;;;;;;;10.15;5.25;;;17.50;99.40;;;;;;4968532;28;20408;-77
2023/06/25 01:58:53;;;;;;;10.60;4.70;;;17.50;99.90;;;;;;4951434;28;20401;-77
2023/06/25 02:01:22;;;;;;;10.40;5.10;;;17.40;99.90;;;;;;4940056;28;20785;-77
2023/06/25 02:03:48;;;;;;;12.30;5.30;;;17.30;99.90;;;;;;4961520;28;20442;-77
2023/06/25 02:06:14;;;;;;;13.48;5.80;;;17.40;98.80;;;;;;4944601;29;20437;-78
2023/06/25 02:08:40;;;;;;;12.15;5.28;;;17.30;1.00;;;;;;4952208;28;20427;-77
2023/06/25 02:11:06;;;;;;;12.73;5.60;;;17.40;1.00;;;;;;4952026;28;20915;-77
2023/06/25 02:13:33;;;;;;;11.70;5.17;;;17.40;1.00;;;;;;4952676;28;20465;-78
2023/06/25 02:15:59;;;;;;;11.57;5.63;;;17.40;1.00;;;;;;4952514;28;20410;-77
2023/06/25 02:18:24;;;;;;;10.80;5.20;;;17.50;1.00;;;;;;4951195;28;20432;-77
2023/06/25 02:20:50;;;;;;;10.90;4.93;;;17.50;1.00;;;;;;4953003;29;20761;-77
2023/06/25 02:23:16;;;;;;;11.73;5.00;;;17.50;79.10;;;;;;4951484;28;20417;-78
2023/06/25 02:25:41;;;;;;;12.20;5.30;;;17.40;99.90;;;;;;4951529;28;20484;-77
2023/06/25 02:28:07;;;;;;;9.98;4.72;;;17.30;99.90;;;;;;4947732;29;20406;-77
2023/06/25 02:30:33;;;;;;;12.27;5.40;;;17.30;99.90;;;;;;4953069;29;20398;-77
2023/06/25 02:32:58;;;;;;;11.27;5.60;;;17.20;99.90;;;;;;4934690;29;20529;-78
2023/06/25 02:35:24;;;;;;;15.45;5.45;;;17.20;99.90;;;;;;4952447;29;21324;-78
2023/06/25 02:37:49;;;;;;;14.65;6.30;;;17.10;99.90;;;;;;4952272;29;20510;-77
2023/06/25 02:40:15;;;;;;;13.45;6.25;;;17.10;99.90;;;;;;4952220;28;20911;-77
2023/06/25 02:42:40;;;;;;;11.68;5.90;;;17.00;99.90;;;;;;4950525;29;20390;-78
2023/06/25 02:45:06;;;;;;;13.57;6.23;;;17.10;99.90;;;;;;4952918;29;20413;-77
2023/06/25 02:47:32;;;;;;;13.23;6.60;;;17.10;99.90;;;;;;4952637;29;20742;-77
2023/06/25 02:49:57;;;;;;;13.23;6.00;;;17.10;99.90;;;;;;4952152;29;20406;-76
2023/06/25 02:52:23;;;;;;;12.40;5.90;;;17.10;1.00;;;;;;4951371;28;20472;-77
2023/06/25 02:54:48;;;;;;;10.77;5.40;;;17.10;1.00;;;;;;4952061;29;20402;-77
2023/06/25 02:57:14;;;;;;;11.00;5.40;;;17.00;99.90;;;;;;4952332;29;20404;-77
2023/06/25 02:59:39;;;;;;;10.13;5.20;;;17.00;63.10;;;;;;4942744;28;20896;-77
2023/06/25 03:02:05;;;;;;;13.27;5.57;;;16.90;99.90;;;;;;4940779;28;20489;-78
2023/06/25 03:04:30;;;;;;;12.50;5.67;;;16.90;99.90;;;;;;4950264;28;20452;-76
2023/06/25 03:06:56;;;;;;;10.60;5.00;;;16.90;99.90;;;;;;4951386;28;20766;-76
2023/06/25 03:09:21;;;;;;;12.45;5.85;;;16.80;1.00;;;;;;4949894;28;20413;-77
2023/06/25 03:11:47;;;;;;;11.68;6.30;;;16.80;1.00;;;;;;4951269;29;20421;-77
2023/06/25 03:14:13;;;;;;;12.15;5.82;;;16.80;1.00;;;;;;4951132;28;20417;-76
2023/06/25 03:16:38;;;;;;;13.83;5.57;;;16.80;1.00;;;;;;4934190;29;20893;-77
2023/06/25 03:19:04;;;;;;;13.60;6.60;;;16.70;99.90;;;;;;4951585;28;20424;-74
2023/06/25 03:21:30;;;;;;;12.52;6.15;;;16.60;68.80;;;;;;4952022;29;20417;-74
2023/06/25 03:23:55;;;;;;;13.50;6.20;;;16.60;99.90;;;;;;4933990;29;20488;-74
2023/06/25 03:26:21;;;;;;;10.10;5.50;;;16.70;1.00;;;;;;4951018;29;20935;-75
2023/06/25 03:28:47;;;;;;;11.77;5.57;;;16.70;1.00;;;;;;4949946;28;20413;-74
2023/06/25 03:31:13;;;;;;;10.05;5.10;;;16.70;55.60;;;;;;4937194;29;20430;-75
2023/06/25 03:33:38;;;;;;;13.80;5.47;;;16.60;99.90;;;;;;4951573;29;20405;-75
2023/06/25 03:36:04;;;;;;;13.93;5.55;;;16.60;99.90;;;;;;4951901;29;20430;-74
2023/06/25 03:38:30;;;;;;;11.80;6.10;;;16.50;1.00;;;;;;4951439;29;20460;-75
2023/06/25 03:40:55;;;;;;;14.63;6.07;;;16.50;1.00;;;;;;4951583;29;20410;-74
2023/06/25 03:43:21;;;;;;;11.97;4.93;;;16.40;4.20;;;;;;4950677;29;20524;-74
2023/06/25 03:45:46;;;;;;;14.07;6.00;;;16.40;99.90;;;;;;4933390;29;20434;-75
2023/06/25 03:48:12;;;;;;;12.60;6.05;;;16.30;1.00;;;;;;4950517;29;20386;-75
2023/06/25 03:50:37;;;;;;;13.98;6.55;;;16.30;1.00;;;;;;4950024;28;20421;-75
2023/06/25 03:53:03;;;;;;;13.43;6.40;;;16.40;1.00;;;;;;4951191;28;20512;-74
2023/06/25 03:55:28;;;;;;;10.53;5.73;;;16.40;1.00;;;;;;4949913;28;20417;-75
2023/06/25 03:57:56;;;;;;;11.60;6.00;;;16.50;1.00;;;;;;4950985;29;20512;-75
2023/06/25 04:00:21;;;;;;;13.85;7.07;;;16.50;1.00;;;;;;4950178;28;20441;-75
2023/06/25 04:02:47;;;;;;;12.23;5.90;;;16.50;1.00;;;;;;4950434;28;20429;-75
2023/06/25 04:05:13;;;;;;;12.80;6.30;;;16.60;99.90;;;;;;4949492;29;20484;-77
2023/06/25 04:07:38;;;;;;;15.73;7.10;;;16.70;99.90;;;;;;4950380;28;20429;-77
2023/06/25 04:10:04;;;;;;;13.67;6.90;;;16.70;1.00;;;;;;4950182;28;20488;-77
2023/06/25 04:12:30;;;;;;;13.77;6.47;;;16.80;99.90;;;;;;4950751;29;20429;-77
2023/06/25 04:14:55;;;;;;;12.10;6.30;;;16.80;14.70;;;;;;4949673;28;20429;-76
2023/06/25 04:17:22;;;;;;;14.47;6.93;;;16.90;97.90;;;;;;4949811;28;20493;-76
2023/06/25 04:19:47;;;;;;;14.82;6.60;;;16.90;1.00;;;;;;4949294;28;20473;-76
2023/06/25 04:22:13;;;;;;;14.90;6.97;;;17.00;99.90;;;;;;4950613;28;20466;-76
2023/06/25 04:24:38;;;;;;;12.47;6.97;;;17.00;1.00;;;;;;4947479;28;20883;-76
2023/06/25 04:27:05;;;;;;;13.40;6.87;;;17.10;99.90;;;;;;4950066;29;20402;-76
2023/06/25 04:29:30;;;;;;;12.03;6.20;;;17.10;99.90;;;;;;4949786;28;20497;-76
2023/06/25 04:31:56;;;;;;;13.18;6.18;;;17.20;99.90;;;;;;4920830;29;20501;-76
2023/06/25 04:34:21;;;;;;;11.90;5.35;;;17.40;1.00;;;;;;4955341;28;20502;-76
2023/06/25 04:36:47;;;;;;;11.50;5.70;;;17.40;1.00;;;;;;4931612;29;20478;-76
2023/06/25 04:39:12;;;;;;;12.50;5.77;;;17.60;1.00;;;;;;4931719;29;20414;-77
2023/06/25 04:41:38;;;;;;;11.53;6.13;;;17.70;1.00;;;;;;4948660;28;20417;-76
2023/06/25 04:44:04;;;;;;;12.67;6.63;;;17.80;1.00;;;;;;4941835;29;20420;-76
2023/06/25 04:46:29;;;;;;;16.10;6.67;;;17.90;99.90;;;;;;4950434;28;20433;-77
2023/06/25 04:48:55;;;;;;;14.43;7.50;;;18.00;91.20;;;;;;4950047;28;20428;-77
2023/06/25 04:51:20;;;;;;;12.70;6.30;;;18.20;1.00;;;;;;4950435;28;20422;-76
2023/06/25 04:53:46;;;;;;;13.10;6.05;;;18.30;1.00;;;;;;4950088;28;20432;-77
2023/06/25 04:56:11;;;;;;;12.18;6.40;;;18.40;87.30;;;;;;4949559;28;20417;-75
2023/06/25 04:58:37;;;;;;;12.40;6.28;;;18.70;1.00;;;;;;4945821;29;20531;-75
2023/06/25 05:01:03;;;;;;;15.57;6.88;;;19.50;99.90;;;;;;4945504;29;20829;-75
2023/06/25 05:03:29;;;;;;;13.90;6.47;;;20.60;1.00;;;;;;4947996;28;20987;-75
2023/06/25 05:05:54;;;;;;;12.90;7.40;;;21.90;1.00;;;;;;4950241;29;20982;-75
2023/06/25 05:08:20;;;;;;;13.80;7.30;;;23.10;99.90;;;;;;4951024;29;20449;-75
2023/06/25 05:10:45;;;;;;;14.35;6.93;;;24.20;99.90;;;;;;4948200;28;20409;-76
2023/06/25 05:13:11;;;;;;;14.00;7.10;;;25.10;99.90;;;;;;4945909;28;20931;-76
2023/06/25 05:15:39;;;;;;;11.70;6.38;;;26.10;99.90;;;;;;4950735;28;20425;-76
2023/06/25 05:18:06;;;;;;;15.35;6.75;;;26.80;99.90;;;;;;4953534;28;20410;-77
2023/06/25 05:20:35;;;;;;;11.88;6.57;;;28.00;99.90;;;;;;4952934;28;20690;-76
2023/06/25 05:23:08;;;;;;;12.15;6.15;;;29.00;99.90;;;;;;4953434;28;20864;-76
2023/06/25 05:25:34;;;;;;;11.45;5.70;;;29.50;99.90;;;;;;4953107;28;20437;-76
2023/06/25 05:28:03;;;;;;;11.80;6.90;;;30.20;99.90;;;;;;4952956;28;20422;-76
2023/06/25 05:30:29;;;;;;;12.20;6.88;;;30.40;99.90;;;;;;4950918;28;20935;-76
2023/06/25 05:32:55;;;;;;;11.85;6.78;;;30.90;99.90;;;;;;4955750;28;20413;-76
2023/06/25 05:35:22;;;;;;;11.63;6.90;;;31.80;99.90;;;;;;4952665;28;20471;-76
2023/06/25 05:37:47;;;;;;;12.38;6.38;;;32.00;99.90;;;;;;4972555;28;20759;-77
2023/06/25 05:40:15;;;;;;;13.07;6.20;;;32.70;99.90;;;;;;4963512;28;20428;-77
2023/06/25 05:42:40;;;;;;;13.40;6.33;;;33.00;99.90;;;;;;4957868;29;20424;-77
2023/06/25 05:45:07;;;;;;;11.50;5.83;;;32.40;99.90;;;;;;4955107;28;20905;-77
2023/06/25 05:47:32;;;;;;;10.70;5.78;;;32.50;99.90;;;;;;4955571;28;20426;-76
2023/06/25 05:49:58;;;;;;;10.37;5.40;;;32.90;99.90;;;;;;4961312;28;20415;-76
2023/06/25 05:52:24;;;;;;;11.40;6.00;;;33.40;99.90;;;;;;4937426;29;21138;-76
2023/06/25 05:54:49;;;;;;;11.23;5.93;;;33.00;99.90;;;;;;4935050;29;20426;-77
2023/06/25 05:57:15;;;;;;;10.47;5.50;;;32.80;99.90;;;;;;4952477;28;20410;-76
2023/06/25 05:59:40;;;;;;;9.68;4.88;;;32.90;99.90;;;;;;4952991;28;20417;-77
2023/06/25 06:02:08;;;;;;;10.07;5.03;;;33.30;99.90;;;;;;4938238;29;20829;-78
2023/06/25 06:04:35;;;;;;;11.97;5.37;;;33.60;99.90;;;;;;4947120;29;20805;-77
2023/06/25 06:07:00;;;;;;;10.10;5.15;;;34.30;99.90;;;;;;4951923;28;20441;-78
2023/06/25 06:09:26;;;;;;;9.90;5.10;;;34.70;99.90;;;;;;4952784;29;20405;-78
2023/06/25 06:11:51;;;;;;;9.43;4.75;;;34.30;99.90;;;;;;4952106;28;20421;-77
2023/06/25 06:14:17;;;;;;;10.10;5.10;;;34.30;99.90;;;;;;4955251;28;20402;-77
2023/06/25 06:16:43;;;;;;;10.65;5.28;;;34.10;99.90;;;;;;4940452;29;20429;-78
2023/06/25 06:19:08;;;;;;;10.18;4.78;;;34.00;99.90;;;;;;4952831;29;20445;-78
2023/06/25 06:21:34;;;;;;;11.43;5.60;;;34.20;99.90;;;;;;4950047;28;20969;-78
2023/06/25 06:23:59;;;;;;;10.70;5.50;;;34.80;99.90;;;;;;4935645;29;20410;-78
2023/06/25 06:26:26;;;;;;;11.13;5.20;;;35.00;99.90;;;;;;4951040;28;20442;-76
2023/06/25 06:28:52;;;;;;;10.43;4.90;;;35.70;99.90;;;;;;4951281;28;20449;-77
2023/06/25 06:31:17;;;;;;;8.70;4.40;;;35.20;99.90;;;;;;4952972;28;20449;-78
2023/06/25 06:33:43;;;;;;;10.40;5.27;;;34.70;99.90;;;;;;4948685;29;20418;-77
2023/06/25 06:36:10;;;;;;;11.45;4.93;;;34.90;99.90;;;;;;4951662;28;20488;-78
2023/06/25 06:38:37;;;;;;;9.43;4.40;;;34.80;99.90;;;;;;4935473;29;20394;-78
2023/06/25 06:41:02;;;;;;;10.15;5.18;;;34.50;99.90;;;;;;4951621;28;20974;-77
2023/06/25 06:43:28;;;;;;;8.47;4.00;;;35.10;99.90;;;;;;4952277;29;20524;-77
2023/06/25 06:45:53;;;;;;;9.70;4.93;;;35.40;99.90;;;;;;4931456;29;20443;-77
2023/06/25 06:48:19;;;;;;;11.50;5.37;;;34.60;99.90;;;;;;4947585;28;20432;-77
2023/06/25 06:50:45;;;;;;;9.40;4.53;;;34.30;99.90;;;;;;4929120;29;20450;-77
2023/06/25 06:53:11;;;;;;;9.80;5.23;;;33.90;99.90;;;;;;4951697;28;20497;-77
2023/06/25 06:55:36;;;;;;;9.43;4.68;;;34.00;99.90;;;;;;4951392;28;20418;-78
2023/06/25 06:58:02;;;;;;;9.57;4.40;;;33.90;99.90;;;;;;4949927;29;20921;-77
2023/06/25 07:00:27;;;;;;;9.80;5.20;;;34.40;99.90;;;;;;4939834;28;20420;-78
2023/06/25 07:02:56;;;;;;;9.43;4.63;;;35.20;99.90;;;;;;4969314;28;20432;-76
2023/06/25 07:05:23;;;;;;;11.48;5.10;;;35.70;99.90;;;;;;4966030;28;20416;-76
2023/06/25 07:07:49;;;;;;;9.40;4.50;;;36.50;99.90;;;;;;4944790;29;20481;-76
2023/06/25 07:10:14;;;;;;;10.67;4.70;;;36.30;99.90;;;;;;4942813;29;20423;-75
2023/06/25 07:12:40;;;;;;;8.80;4.60;;;35.90;99.90;;;;;;4949948;28;20404;-76
2023/06/25 07:15:07;;;;;;;10.80;4.47;;;35.90;99.90;;;;;;4950921;29;20845;-77
2023/06/25 07:17:32;;;;;;;9.88;4.60;;;36.10;99.90;;;;;;4951647;28;20422;-75
2023/06/25 07:19:58;;;;;;;9.30;4.60;;;36.50;99.90;;;;;;4950467;28;20476;-76
2023/06/25 07:22:24;;;;;;;9.20;4.50;;;37.40;99.90;;;;;;4940945;28;20413;-75
2023/06/25 07:24:49;;;;;;;9.30;4.33;;;37.70;99.90;;;;;;4945666;28;20432;-75
2023/06/25 07:27:15;;;;;;;9.50;4.63;;;37.90;99.90;;;;;;4944815;28;20956;-75
2023/06/25 07:29:40;;;;;;;11.52;5.25;;;37.90;99.90;;;;;;4945311;28;20429;-76
2023/06/25 07:32:07;;;;;;;10.20;4.70;;;38.10;99.90;;;;;;4946333;29;20414;-77
2023/06/25 07:34:32;;;;;;;10.23;5.10;;;37.80;99.90;;;;;;4916546;29;20450;-76
2023/06/25 07:36:58;;;;;;;10.17;5.33;;;37.70;99.90;;;;;;4932345;29;20400;-77
2023/06/25 07:39:26;;;;;;;10.27;4.88;;;37.80;99.90;;;;;;4940293;28;20750;-75
2023/06/25 07:41:52;;;;;;;10.47;5.10;;;38.20;99.90;;;;;;4932966;29;20445;-76
2023/06/25 07:44:18;;;;;;;9.30;4.63;;;38.10;99.90;;;;;;4949895;28;20427;-77
2023/06/25 07:46:45;;;;;;;10.63;4.68;;;37.90;99.90;;;;;;4950896;29;20426;-75
2023/06/25 07:49:10;;;;;;;11.53;4.90;;;38.60;99.90;;;;;;4949527;28;20413;-77
2023/06/25 07:51:36;;;;;;;10.00;5.40;;;38.40;99.90;;;;;;4950002;29;20468;-78
2023/06/25 07:54:01;;;;;;;10.73;5.13;;;38.80;99.90;;;;;;4968685;28;20388;-76
2023/06/25 07:56:31;;;;;;;12.05;5.03;;;39.10;99.90;;;;;;4946545;29;20414;-78
2023/06/25 07:58:56;;;;;;;10.55;5.10;;;38.90;99.90;;;;;;4933366;29;20437;-76
2023/06/25 08:01:22;;;;;;;9.18;4.65;;;38.90;99.90;;;;;;4925951;29;20485;-76
2023/06/25 08:03:48;;;;;;;10.93;5.20;;;38.90;99.90;;;;;;4950408;28;20441;-77
2023/06/25 08:06:14;;;;;;;11.00;5.00;;;38.90;99.90;;;;;;4934555;29;20793;-76
2023/06/25 08:08:39;;;;;;;10.80;5.50;;;39.00;99.90;;;;;;4948572;29;20395;-76
2023/06/25 08:11:05;;;;;;;12.40;5.40;;;38.50;99.90;;;;;;4941945;29;20407;-78
2023/06/25 08:13:31;;;;;;;11.07;4.90;;;38.60;99.90;;;;;;4934940;29;20485;-77
2023/06/25 08:15:56;;;;;;;11.07;5.43;;;39.20;99.90;;;;;;4950198;29;20950;-76
2023/06/25 08:18:22;;;;;;;10.30;4.73;;;39.80;99.90;;;;;;4955346;28;20401;-76
2023/06/25 08:20:48;;;;;;;9.00;4.20;;;40.00;99.90;;;;;;4949801;28;20493;-78
2023/06/25 08:23:14;;;;;;;12.07;4.93;;;39.50;99.90;;;;;;4932496;29;20504;-76
2023/06/25 08:25:42;;;;;;;10.68;4.82;;;38.80;99.90;;;;;;4950329;29;20524;-77
2023/06/25 08:28:08;;;;;;;9.70;4.32;;;38.10;99.90;;;;;;4945978;29;20770;-77
2023/06/25 08:30:36;;;;;;;10.32;5.00;;;37.80;99.90;;;;;;4948369;29;20509;-76
2023/06/25 08:33:01;;;;;;;11.13;4.90;;;38.20;99.90;;;;;;4943324;29;20477;-76
2023/06/25 08:35:27;;;;;;;10.60;5.28;;;38.60;99.90;;;;;;4942176;28;21198;-77
2023/06/25 08:37:52;;;;;;;9.93;4.80;;;39.00;99.90;;;;;;4947231;29;20912;-76
2023/06/25 08:40:18;;;;;;;9.93;4.90;;;38.70;99.90;;;;;;4946660;28;20413;-77
2023/06/25 08:42:44;;;;;;;10.90;4.70;;;38.80;99.90;;;;;;4947162;28;20446;-77
2023/06/25 08:45:10;;;;;;;10.20;4.90;;;39.20;99.90;;;;;;4949644;28;20416;-77
2023/06/25 08:47:40;;;;;;;12.13;4.78;;;39.50;99.90;;;;;;4930873;28;20472;-78
2023/06/25 08:50:09;;;;;;;16.65;4.85;;;40.10;1.00;;;;;;4945466;28;20413;-77
2023/06/25 08:52:35;;;;;;;10.45;5.40;;;40.40;99.90;;;;;;4949067;28;20405;-80
2023/06/25 08:55:02;;;;;;;10.73;5.07;;;40.90;99.90;;;;;;4941981;29;20433;-77
2023/06/25 08:57:28;;;;;;;10.00;5.00;;;40.50;99.90;;;;;;4935918;29;20411;-76
2023/06/25 08:59:53;;;;;;;9.60;4.83;;;40.00;99.90;;;;;;4964418;28;20690;-76
2023/06/25 09:02:19;;;;;;;10.05;4.60;;;39.30;1.00;;;;;;4936374;29;20914;-76
2023/06/25 09:04:47;;;;;;;11.40;5.50;;;38.80;1.00;;;;;;4953477;29;20505;-76
2023/06/25 09:07:15;;;;;;;12.05;5.03;;;38.40;99.90;;;;;;4947759;29;20520;-76
2023/06/25 09:09:42;;;;;;;9.90;4.95;;;37.80;99.90;;;;;;4936689;28;20410;-76
2023/06/25 09:12:09;;;;;;;10.18;4.95;;;37.60;99.90;;;;;;4968630;28;20431;-76
2023/06/25 09:14:36;;;;;;;10.63;5.33;;;37.20;99.90;;;;;;4950803;28;20421;-77
2023/06/25 09:17:04;;;;;;;10.30;5.10;;;37.50;99.90;;;;;;4952027;28;20421;-77
2023/06/25 09:19:30;;;;;;;12.27;5.30;;;38.00;99.90;;;;;;4949748;28;20463;-76
2023/06/25 09:21:55;;;;;;;10.23;4.70;;;38.00;99.90;;;;;;4953336;28;20413;-76
2023/06/25 09:24:21;;;;;;;10.52;4.90;;;37.40;99.90;;;;;;4948526;28;20861;-77
2023/06/25 09:26:51;;;;;;;11.23;5.00;;;37.50;99.90;;;;;;4942678;28;20431;-77
2023/06/25 09:29:19;;;;;;;10.40;4.95;;;37.70;99.90;;;;;;4950702;29;20426;-77
2023/06/25 09:31:46;;;;;;;12.90;5.50;;;38.40;99.90;;;;;;4938601;29;20442;-75
2023/06/25 09:34:15;;;;;;;10.73;5.10;;;39.50;99.90;;;;;;4936799;29;20798;-76
2023/06/25 09:36:41;;;;;;;9.32;4.88;;;39.50;99.90;;;;;;4949281;28;20406;-76
2023/06/25 09:39:08;;;;;;;9.98;4.10;;;39.50;99.90;;;;;;4952113;28;20428;-75
2023/06/25 09:41:37;;;;;;;10.00;4.35;;;39.00;99.90;;;;;;4934434;28;20474;-75
2023/06/25 09:44:04;;;;;;;10.20;4.70;;;38.90;99.90;;;;;;4951246;28;20557;-75
2023/06/25 09:46:33;;;;;;;9.18;4.25;;;39.20;99.90;;;;;;4944933;29;21178;-76
2023/06/25 09:49:03;;;;;;;9.75;4.00;;;39.40;99.90;;;;;;4951371;28;20406;-76
2023/06/25 09:52:01;;;;;;;10.00;4.43;;;38.40;99.90;;;;;;4953466;29;20425;-76
2023/06/25 09:54:29;;;;;;;10.90;4.38;;;38.70;99.90;;;;;;4952043;28;20422;-77
2023/06/25 09:56:57;;;;;;;12.73;4.80;;;38.80;99.90;;;;;;4936457;29;21373;-76
2023/06/25 09:59:26;;;;;;;11.75;4.90;;;38.90;99.90;;;;;;4953698;29;20412;-76
2023/06/25 10:01:52;;;;;;;10.43;4.50;;;39.10;99.90;;;;;;4953031;28;20410;-75
2023/06/25 10:04:18;;;;;;;10.57;4.90;;;39.70;99.90;;;;;;4952721;29;20935;-76
2023/06/25 10:06:45;;;;;;;13.73;4.60;;;40.20;99.90;;;;;;4953110;29;20458;-76
2023/06/25 10:09:10;;;;;;;9.15;4.32;;;39.80;99.90;;;;;;4953744;29;20409;-76
2023/06/25 10:11:47;;;;;;;9.30;4.40;;;39.80;99.90;;;;;;4954041;29;20402;-76
2023/06/25 10:14:15;;;;;;;9.48;4.00;;;40.10;99.90;;;;;;4949010;29;20418;-76
2023/06/25 10:16:41;;;;;;;9.55;4.60;;;40.60;99.90;;;;;;4951034;29;20953;-76
2023/06/25 10:19:07;;;;;;;10.15;4.68;;;39.80;99.90;;;;;;4952138;29;20742;-76
2023/06/25 10:21:33;;;;;;;9.45;4.65;;;39.00;99.90;;;;;;4918630;29;20405;-75
2023/06/25 10:24:03;;;;;;;9.50;3.90;;;38.50;99.90;;;;;;4950080;29;20420;-76
2023/06/25 10:26:32;;;;;;;10.43;4.20;;;38.70;99.90;;;;;;4949750;28;20793;-75
2023/06/25 10:29:06;;;;;;;9.80;4.80;;;38.10;99.90;;;;;;4949440;29;20481;-76
2023/06/25 10:31:39;;;;;;;9.43;4.70;;;38.00;99.90;;;;;;4950345;29;20421;-76
2023/06/25 10:34:06;;;;;;;10.13;4.83;;;38.30;99.90;;;;;;4919207;29;20417;-77
2023/06/25 10:36:33;;;;;;;9.40;4.40;;;37.70;99.90;;;;;;4952720;29;20442;-77
2023/06/25 10:38:59;;;;;;;9.75;4.05;;;36.20;99.90;;;;;;4951093;29;20919;-78
2023/06/25 10:41:32;;;;;;;10.87;4.50;;;35.20;99.90;;;;;;4952850;29;20492;-78
2023/06/25 10:43:58;;;;;;;10.50;4.85;;;35.00;99.90;;;;;;4949063;29;20431;-77
2023/06/25 10:46:31;;;;;;;11.70;4.05;;;35.00;99.90;;;;;;4947764;29;20521;-78
2023/06/25 10:48:59;;;;;;;10.67;5.17;;;35.00;99.90;;;;;;4951486;28;20417;-77
2023/06/25 10:51:26;;;;;;;10.60;4.60;;;34.80;99.90;;;;;;4950907;29;20449;-78
2023/06/25 10:53:54;;;;;;;9.52;4.20;;;34.30;99.90;;;;;;4951735;29;20437;-78
2023/06/25 10:56:21;;;;;;;10.18;4.15;;;34.30;99.90;;;;;;4952601;29;20415;-76
2023/06/25 10:58:54;;;;;;;10.02;4.40;;;34.00;99.90;;;;;;4950510;29;20939;-76
2023/06/25 11:01:19;;;;;;;9.35;3.90;;;33.50;99.90;;;;;;4952085;29;20425;-76
2023/06/25 11:03:45;;;;;;;10.52;4.30;;;33.10;99.90;;;;;;4950827;28;20937;-76
2023/06/25 11:06:10;;;;;;;10.10;3.90;;;33.10;99.90;;;;;;4949901;29;20433;-76
2023/06/25 11:08:36;;;;;;;9.73;4.30;;;32.70;99.90;;;;;;4951168;29;20410;-76
2023/06/25 11:11:03;;;;;;;9.52;4.20;;;32.90;99.90;;;;;;4952239;29;20405;-75
2023/06/25 11:13:31;;;;;;;11.20;4.50;;;33.00;99.90;;;;;;4945762;29;20410;-76
2023/06/25 11:15:57;;;;;;;10.03;4.13;;;32.90;99.90;;;;;;4947916;28;20410;-76
2023/06/25 11:18:22;;;;;;;11.10;4.60;;;32.60;99.90;;;;;;4948426;29;20447;-76
2023/06/25 11:20:48;;;;;;;8.95;4.13;;;32.60;99.90;;;;;;4944463;29;20510;-76
2023/06/25 11:23:14;;;;;;;9.75;4.30;;;33.00;99.90;;;;;;4950817;29;20467;-75
2023/06/25 11:25:39;;;;;;;9.50;4.10;;;33.20;99.90;;;;;;4954873;28;20459;-75
2023/06/25 11:28:11;;;;;;;12.10;4.53;;;33.20;99.90;;;;;;4964559;28;20407;-76
2023/06/25 11:30:37;;;;;;;9.95;3.80;;;33.30;99.90;;;;;;4948185;29;20410;-75
2023/06/25 11:33:11;;;;;;;9.80;3.90;;;33.30;99.90;;;;;;4927567;29;20468;-75
2023/06/25 11:35:37;;;;;;;10.15;4.07;;;33.20;99.90;;;;;;4944321;28;20441;-75
2023/06/25 11:38:03;;;;;;;9.38;3.75;;;33.30;99.90;;;;;;4946727;28;20460;-75
2023/06/25 11:40:30;;;;;;;9.53;4.17;;;33.30;99.90;;;;;;4944362;28;20418;-77
2023/06/25 11:42:56;;;;;;;9.13;3.78;;;33.30;99.90;;;;;;4948864;29;20498;-74
2023/06/25 11:45:22;;;;;;;10.85;3.80;;;33.50;99.90;;;;;;4924362;29;20421;-76
2023/06/25 11:47:56;;;;;;;9.50;4.00;;;33.00;99.90;;;;;;4946774;29;20397;-76
2023/06/25 11:50:24;;;;;;;8.70;3.85;;;32.60;99.90;;;;;;4942488;29;20444;-76
2023/06/25 11:52:53;;;;;;;8.63;3.65;;;32.60;99.90;;;;;;4932295;29;20417;-76
2023/06/25 11:55:21;;;;;;;9.70;4.10;;;32.30;99.90;;;;;;4945073;28;20892;-76
2023/06/25 11:57:47;;;;;;;9.00;3.78;;;31.90;99.90;;;;;;4947999;29;20566;-77
2023/06/25 12:00:13;;;;;;;9.63;3.40;;;32.10;99.90;;;;;;4949008;29;20514;-77
2023/06/25 12:02:38;;;;;;;10.10;4.28;;;32.10;99.90;;;;;;4947223;28;20424;-76
2023/06/25 12:05:04;;;;;;;11.33;4.10;;;32.10;99.90;;;;;;4947073;28;20421;-76
2023/06/25 12:07:30;;;;;;;8.90;3.10;;;32.20;99.90;;;;;;4949239;28;20417;-76
2023/06/25 12:09:56;;;;;;;8.98;3.70;;;32.10;99.90;;;;;;4946712;28;20413;-76
2023/06/25 12:12:21;;;;;;;9.60;4.30;;;32.00;99.90;;;;;;4929290;29;20510;-77
2023/06/25 12:14:48;;;;;;;9.20;3.85;;;32.30;99.90;;;;;;4947684;28;20421;-76
2023/06/25 12:17:15;;;;;;;8.65;3.50;;;32.50;99.90;;;;;;4930691;29;20769;-76
2023/06/25 12:19:41;;;;;;;9.63;4.22;;;32.60;99.90;;;;;;4946969;28;20472;-76
2023/06/25 12:22:07;;;;;;;10.10;4.00;;;32.70;99.90;;;;;;4930629;29;20398;-76
2023/06/25 12:24:35;;;;;;;10.00;3.72;;;32.90;99.90;;;;;;4946859;28;21355;-80
2023/06/25 12:27:00;;;;;;;10.00;4.03;;;33.30;99.90;;;;;;4947581;28;20444;-77
2023/06/25 12:29:26;;;;;;;9.23;3.43;;;33.20;99.90;;;;;;4948247;29;20892;-76
2023/06/25 12:31:52;;;;;;;9.40;3.72;;;33.20;99.90;;;;;;4949027;29;20753;-75
2023/06/25 12:34:17;;;;;;;9.95;4.28;;;33.30;99.90;;;;;;4946704;29;20413;-76
2023/06/25 12:36:43;;;;;;;9.33;3.73;;;33.10;99.90;;;;;;4948359;29;20398;-76